Time;durP1;ratioP1;P1;durP2;ratioP2;P2;SDS_P1;SDS_P2;PMS_P1;PMS_P2;Temp;Humidity;BMP_temperature;BMP_pressure;BME280_temperature;BME280_humidity;BME280_pressure;Samples;Min_cycle;Max_cycle;Signal;HPM_P1;HPM_P2
2022/01/22 00:00:41;;;;;;;5.13;1.80;;;;;;;;;;5021072;28;20900;-55
2022/01/22 00:03:06;;;;;;;6.53;1.88;;;;;;;;;;5008677;28;20053;-54
2022/01/22 00:05:34;;;;;;;7.07;1.80;;;;;;;;;;5019863;28;20156;-54
2022/01/22 00:08:00;;;;;;;6.68;1.85;;;;;;;;;;5020104;28;20255;-56
2022/01/22 00:10:26;;;;;;;9.23;1.85;;;;;;;;;;5021501;28;20540;-53
2022/01/22 00:15:27;;;;;;;7.03;1.77;;;;;;;;;;5024242;28;20033;-57
2022/01/22 00:17:53;;;;;;;7.72;1.90;;;;;;;;;;5020732;28;20033;-52
2022/01/22 00:20:21;;;;;;;7.80;2.15;;;;;;;;;;5006210;28;20044;-55
2022/01/22 00:22:47;;;;;;;5.63;1.73;;;;;;;;;;5021586;28;20018;-52
2022/01/22 00:25:16;;;;;;;7.72;1.90;;;;;;;;;;5022834;28;20026;-53
2022/01/22 00:27:44;;;;;;;6.95;2.38;;;;;;;;;;5023398;28;20484;-56
2022/01/22 00:30:13;;;;;;;6.95;1.88;;;;;;;;;;5023574;28;20029;-51
2022/01/22 00:32:38;;;;;;;5.82;1.60;;;;;;;;;;5019307;28;20044;-54
2022/01/22 00:35:05;;;;;;;5.28;1.60;;;;;;;;;;5021117;28;20049;-54
2022/01/22 00:37:32;;;;;;;3.30;1.65;;;;;;;;;;5021755;28;20021;-55
2022/01/22 00:39:57;;;;;;;8.45;1.55;;;;;;;;;;5021604;28;20395;-56
2022/01/22 00:42:24;;;;;;;10.07;1.67;;;;;;;;;;5021364;28;20022;-54
2022/01/22 00:44:51;;;;;;;5.00;1.48;;;;;;;;;;5022830;28;20099;-56
2022/01/22 00:47:19;;;;;;;6.35;1.92;;;;;;;;;;5021895;28;20389;-57
2022/01/22 00:49:45;;;;;;;6.35;1.40;;;;;;;;;;5020762;28;20040;-57
2022/01/22 00:52:11;;;;;;;5.20;1.58;;;;;;;;;;5022644;28;20361;-55
2022/01/22 00:54:37;;;;;;;3.45;1.30;;;;;;;;;;5021501;28;20029;-58
2022/01/22 00:57:03;;;;;;;4.70;1.77;;;;;;;;;;5022536;28;20454;-56
2022/01/22 00:59:28;;;;;;;9.05;1.55;;;;;;;;;;5021927;28;20036;-56
2022/01/22 01:01:54;;;;;;;7.05;2.00;;;;;;;;;;5020995;28;20037;-54
2022/01/22 01:04:19;;;;;;;3.97;1.50;;;;;;;;;;5021318;28;20041;-55
2022/01/22 01:06:45;;;;;;;7.38;1.55;;;;;;;;;;5010159;28;20038;-54
2022/01/22 01:09:11;;;;;;;6.97;1.73;;;;;;;;;;5019650;28;20393;-53
2022/01/22 01:11:43;;;;;;;15.45;2.60;;;;;;;;;;5020620;28;20141;-57
2022/01/22 01:14:12;;;;;;;6.45;1.50;;;;;;;;;;5020127;28;20044;-53
2022/01/22 01:35:17;;;;;;;8.65;1.73;;;;;;;;;;5024622;28;20029;-51
2022/01/22 01:37:42;;;;;;;6.20;1.67;;;;;;;;;;5020619;28;20030;-56
2022/01/22 01:40:10;;;;;;;8.48;1.70;;;;;;;;;;5024644;28;20474;-56
2022/01/22 01:43:36;;;;;;;5.40;2.28;;;;;;;;;;5022928;28;20030;-53
2022/01/22 01:45:31;;;;;;;5.80;1.73;;;;;;;;;;5014904;28;20405;-57
2022/01/22 01:48:01;;;;;;;5.63;1.60;;;;;;;;;;5024280;28;20453;-53
2022/01/22 01:50:27;;;;;;;6.55;1.88;;;;;;;;;;5025077;28;20021;-57
2022/01/22 01:53:08;;;;;;;4.68;2.00;;;;;;;;;;5012626;28;20033;-57
2022/01/22 01:55:47;;;;;;;7.95;1.80;;;;;;;;;;5007304;28;20060;-56
2022/01/22 01:58:13;;;;;;;6.55;2.10;;;;;;;;;;5021672;28;20470;-57
2022/01/22 02:00:39;;;;;;;3.55;1.40;;;;;;;;;;5025293;28;20028;-53
2022/01/22 02:03:05;;;;;;;4.82;1.60;;;;;;;;;;5024383;28;20021;-55
2022/01/22 02:05:32;;;;;;;8.45;1.73;;;;;;;;;;5023180;28;20063;-57
2022/01/22 02:07:58;;;;;;;4.40;1.83;;;;;;;;;;5023956;28;20036;-52
2022/01/22 02:10:27;;;;;;;6.68;2.20;;;;;;;;;;5024058;28;20034;-53
2022/01/22 02:23:46;;;;;;;6.97;2.00;;;;;;;;;;5024592;28;20076;-57
2022/01/22 02:26:14;;;;;;;7.82;2.17;;;;;;;;;;5023140;28;20048;-51
2022/01/22 02:28:41;;;;;;;5.72;2.00;;;;;;;;;;5023892;28;20966;-55
2022/01/22 02:31:25;;;;;;;9.65;2.33;;;;;;;;;;5022747;28;20099;-58
2022/01/22 02:36:23;;;;;;;5.82;2.15;;;;;;;;;;5023862;28;20029;-55
2022/01/22 02:39:15;;;;;;;7.00;2.13;;;;;;;;;;5024957;28;20064;-54
2022/01/22 02:41:37;;;;;;;4.68;1.58;;;;;;;;;;5017917;28;20476;-57
2022/01/22 02:44:03;;;;;;;7.68;2.22;;;;;;;;;;5020668;28;20047;-56
2022/01/22 02:46:28;;;;;;;11.90;2.30;;;;;;;;;;5024111;28;20033;-53
2022/01/22 02:48:56;;;;;;;8.05;1.80;;;;;;;;;;5023158;28;20358;-56
2022/01/22 02:51:22;;;;;;;3.92;1.73;;;;;;;;;;5005421;28;20025;-55
2022/01/22 02:53:49;;;;;;;4.65;2.10;;;;;;;;;;5022999;28;20061;-56
2022/01/22 02:56:17;;;;;;;6.60;2.00;;;;;;;;;;5022116;28;20103;-57
2022/01/22 02:58:42;;;;;;;6.95;2.03;;;;;;;;;;5025063;28;20129;-52
2022/01/22 03:01:07;;;;;;;4.00;1.75;;;;;;;;;;5021236;28;20157;-57
2022/01/22 03:03:33;;;;;;;7.53;2.03;;;;;;;;;;5020933;28;20496;-55
2022/01/22 03:06:01;;;;;;;5.63;2.08;;;;;;;;;;5022026;28;20021;-56
2022/01/22 03:08:28;;;;;;;2.70;1.73;;;;;;;;;;5021896;28;20030;-54
2022/01/22 03:10:54;;;;;;;4.68;1.70;;;;;;;;;;5021233;28;20420;-56
2022/01/22 03:18:47;;;;;;;5.15;1.77;;;;;;;;;;5021878;28;20400;-54
2022/01/22 03:21:38;;;;;;;5.35;1.90;;;;;;;;;;5024674;28;20033;-57
2022/01/22 03:29:34;;;;;;;3.42;1.80;;;;;;;;;;5021632;28;20033;-57
2022/01/22 03:32:00;;;;;;;4.38;1.65;;;;;;;;;;5023107;28;20021;-55
2022/01/22 03:34:27;;;;;;;3.92;1.88;;;;;;;;;;5021031;28;20401;-57
2022/01/22 03:36:53;;;;;;;4.47;2.13;;;;;;;;;;5023924;28;20654;-53
2022/01/22 03:39:19;;;;;;;10.38;2.20;;;;;;;;;;5024471;28;20033;-57
2022/01/22 03:41:44;;;;;;;4.93;1.98;;;;;;;;;;5023892;28;20029;-54
2022/01/22 03:44:11;;;;;;;3.20;1.70;;;;;;;;;;5021574;28;20037;-57
2022/01/22 03:46:38;;;;;;;7.38;2.33;;;;;;;;;;5007397;28;20063;-54
2022/01/22 03:49:04;;;;;;;5.70;1.77;;;;;;;;;;5023332;28;20040;-54
2022/01/22 03:51:30;;;;;;;7.63;1.90;;;;;;;;;;5024990;28;20074;-57
2022/01/22 03:53:56;;;;;;;2.40;1.85;;;;;;;;;;5022249;28;20080;-54
2022/01/22 03:56:24;;;;;;;4.10;1.50;;;;;;;;;;5021885;28;20025;-56
2022/01/22 03:58:49;;;;;;;2.92;1.80;;;;;;;;;;5024388;28;21202;-56
2022/01/22 04:03:52;;;;;;;8.98;2.22;;;;;;;;;;5021376;28;20017;-54
2022/01/22 04:08:58;;;;;;;4.65;1.88;;;;;;;;;;5021964;28;20041;-53
2022/01/22 04:11:23;;;;;;;3.50;1.60;;;;;;;;;;5022888;28;20071;-52
2022/01/22 04:13:52;;;;;;;4.13;1.55;;;;;;;;;;5019711;28;20107;-57
2022/01/22 04:16:19;;;;;;;7.65;1.88;;;;;;;;;;5022125;28;20053;-56
2022/01/22 04:27:06;;;;;;;3.65;1.77;;;;;;;;;;5021814;28;20032;-56
2022/01/22 04:29:31;;;;;;;5.00;1.75;;;;;;;;;;5020301;28;20037;-56
2022/01/22 04:31:57;;;;;;;2.83;1.60;;;;;;;;;;5024253;28;20115;-57
2022/01/22 04:34:22;;;;;;;5.15;1.77;;;;;;;;;;5033049;28;20102;-55
2022/01/22 04:36:47;;;;;;;3.20;1.92;;;;;;;;;;5021226;28;20029;-56
2022/01/22 04:39:13;;;;;;;3.92;1.50;;;;;;;;;;5023710;28;20119;-57
2022/01/22 04:41:38;;;;;;;4.07;1.73;;;;;;;;;;5021287;28;20033;-56
2022/01/22 04:44:05;;;;;;;3.28;1.65;;;;;;;;;;5020998;28;20022;-55
2022/01/22 04:49:13;;;;;;;1.90;1.48;;;;;;;;;;5021678;28;20035;-56
2022/01/22 04:57:07;;;;;;;5.72;1.90;;;;;;;;;;5021180;28;20827;-56
2022/01/22 04:59:33;;;;;;;2.13;1.70;;;;;;;;;;5020532;28;20112;-56
2022/01/22 05:01:59;;;;;;;4.72;1.90;;;;;;;;;;5020081;28;20065;-54
2022/01/22 05:04:24;;;;;;;2.65;1.75;;;;;;;;;;5021376;28;20096;-56
2022/01/22 05:06:50;;;;;;;5.57;1.83;;;;;;;;;;5026205;28;20453;-57
2022/01/22 05:09:15;;;;;;;3.78;1.80;;;;;;;;;;5023649;28;20021;-55
2022/01/22 05:11:41;;;;;;;4.32;1.85;;;;;;;;;;5023979;28;20405;-54
2022/01/22 05:14:06;;;;;;;5.25;1.85;;;;;;;;;;5025764;28;20029;-57
2022/01/22 05:16:32;;;;;;;3.90;2.15;;;;;;;;;;5025500;28;20415;-56
2022/01/22 05:19:05;;;;;;;4.22;2.03;;;;;;;;;;5022399;28;20037;-57
2022/01/22 05:21:33;;;;;;;4.30;2.33;;;;;;;;;;5024209;28;20037;-52
2022/01/22 05:24:03;;;;;;;3.67;2.03;;;;;;;;;;5026602;28;20064;-57
2022/01/22 05:26:52;;;;;;;3.28;1.95;;;;;;;;;;5024198;28;20090;-56
2022/01/22 05:29:57;;;;;;;4.00;2.25;;;;;;;;;;5025332;28;20045;-56
2022/01/22 05:32:34;;;;;;;2.10;1.70;;;;;;;;;;5024440;28;20191;-56
2022/01/22 05:37:43;;;;;;;3.88;2.10;;;;;;;;;;5025663;28;20758;-58
2022/01/22 05:40:09;;;;;;;3.85;2.20;;;;;;;;;;5024268;28;20034;-57
2022/01/22 05:42:36;;;;;;;3.00;2.15;;;;;;;;;;5024057;28;20139;-55
2022/01/22 05:45:06;;;;;;;3.05;2.20;;;;;;;;;;5023747;28;20032;-57
2022/01/22 05:47:31;;;;;;;3.47;2.25;;;;;;;;;;5024088;28;20133;-58
2022/01/22 05:49:57;;;;;;;2.30;2.00;;;;;;;;;;5025859;28;20184;-55
2022/01/22 05:52:31;;;;;;;3.28;2.28;;;;;;;;;;5020452;28;20452;-58
2022/01/22 06:00:12;;;;;;;3.67;2.47;;;;;;;;;;5024697;28;20516;-56
2022/01/22 06:02:38;;;;;;;4.15;2.42;;;;;;;;;;5022971;28;20029;-54
2022/01/22 06:05:03;;;;;;;2.95;2.28;;;;;;;;;;5024697;28;20025;-53
2022/01/22 06:07:29;;;;;;;6.35;2.20;;;;;;;;;;5023372;28;20030;-55
2022/01/22 06:10:13;;;;;;;4.90;2.17;;;;;;;;;;5023206;28;20099;-53
2022/01/22 06:15:11;;;;;;;3.67;2.42;;;;;;;;;;5021366;28;20049;-51
2022/01/22 06:17:36;;;;;;;10.85;2.83;;;;;;;;;;5008744;28;20056;-56
2022/01/22 06:20:03;;;;;;;3.10;2.60;;;;;;;;;;5023648;28;20033;-56
2022/01/22 06:22:29;;;;;;;3.55;2.65;;;;;;;;;;5021647;28;20060;-55
2022/01/22 06:24:55;;;;;;;3.90;2.63;;;;;;;;;;5008302;28;20049;-56
2022/01/22 06:27:21;;;;;;;3.25;2.40;;;;;;;;;;5023022;28;20155;-54
2022/01/22 06:29:46;;;;;;;4.78;2.58;;;;;;;;;;5022713;28;20044;-53
2022/01/22 06:32:11;;;;;;;4.32;2.55;;;;;;;;;;5022329;28;20047;-57
2022/01/22 06:34:37;;;;;;;4.95;2.50;;;;;;;;;;5022771;28;20294;-55
2022/01/22 06:37:02;;;;;;;4.57;2.55;;;;;;;;;;5022341;28;20092;-56
2022/01/22 06:39:28;;;;;;;4.13;2.38;;;;;;;;;;5021870;28;20789;-55
2022/01/22 06:41:53;;;;;;;4.10;2.45;;;;;;;;;;5024053;28;20029;-55
2022/01/22 06:44:24;;;;;;;3.88;2.33;;;;;;;;;;5022666;28;20445;-56
2022/01/22 06:46:52;;;;;;;2.67;2.22;;;;;;;;;;5024151;28;20025;-54
2022/01/22 06:49:18;;;;;;;3.03;2.60;;;;;;;;;;5022170;28;20056;-52
2022/01/22 06:51:44;;;;;;;3.47;2.60;;;;;;;;;;5021828;28;20037;-55
2022/01/22 06:54:11;;;;;;;3.67;2.53;;;;;;;;;;5020913;28;20911;-55
2022/01/22 06:56:37;;;;;;;4.15;2.80;;;;;;;;;;5020095;28;20120;-53
2022/01/22 06:59:05;;;;;;;3.47;2.42;;;;;;;;;;5022786;28;20033;-53
2022/01/22 07:01:31;;;;;;;2.13;1.75;;;;;;;;;;5022275;28;20037;-55
2022/01/22 07:03:57;;;;;;;3.40;2.10;;;;;;;;;;5023656;28;20389;-56
2022/01/22 07:06:23;;;;;;;2.70;2.40;;;;;;;;;;5020930;28;20029;-52
2022/01/22 07:08:49;;;;;;;2.10;2.00;;;;;;;;;;5023001;28;20037;-53
2022/01/22 07:11:14;;;;;;;3.15;2.30;;;;;;;;;;5023385;28;20043;-53
2022/01/22 07:13:40;;;;;;;4.00;2.03;;;;;;;;;;5021528;28;20030;-54
2022/01/22 07:16:06;;;;;;;2.67;2.20;;;;;;;;;;5010016;28;20524;-53
2022/01/22 07:18:31;;;;;;;2.17;1.98;;;;;;;;;;5022154;28;20112;-54
2022/01/22 07:20:57;;;;;;;3.60;2.17;;;;;;;;;;5022182;28;20510;-57
2022/01/22 07:26:01;;;;;;;2.60;1.95;;;;;;;;;;5022556;28;20149;-55
2022/01/22 07:28:26;;;;;;;2.67;2.15;;;;;;;;;;5018710;28;20033;-53
2022/01/22 07:30:52;;;;;;;2.25;2.05;;;;;;;;;;5020357;28;20048;-57
2022/01/22 07:33:21;;;;;;;2.17;1.98;;;;;;;;;;5020819;28;20025;-53
2022/01/22 07:35:48;;;;;;;3.53;2.20;;;;;;;;;;5022868;28;20136;-54
2022/01/22 07:38:13;;;;;;;3.20;2.20;;;;;;;;;;5007271;28;20060;-55
2022/01/22 07:40:39;;;;;;;3.25;2.10;;;;;;;;;;5020945;28;20057;-53
2022/01/22 07:43:05;;;;;;;2.67;2.00;;;;;;;;;;5021501;28;20101;-53
2022/01/22 07:45:30;;;;;;;3.15;2.10;;;;;;;;;;5022044;28;20026;-55
2022/01/22 07:47:56;;;;;;;2.90;2.20;;;;;;;;;;5022426;28;20599;-54
2022/01/22 07:50:21;;;;;;;7.03;2.20;;;;;;;;;;5022941;28;20108;-53
2022/01/22 07:52:47;;;;;;;3.47;2.38;;;;;;;;;;5023525;28;20025;-52
2022/01/22 07:55:13;;;;;;;3.03;2.10;;;;;;;;;;5024172;28;20166;-56
2022/01/22 07:57:38;;;;;;;4.63;2.33;;;;;;;;;;5021839;28;20082;-56
2022/01/22 08:00:06;;;;;;;2.10;2.00;;;;;;;;;;5020700;28;20037;-57
2022/01/22 08:02:31;;;;;;;4.82;2.35;;;;;;;;;;5018969;28;20048;-57
2022/01/22 08:04:57;;;;;;;3.53;1.85;;;;;;;;;;5021870;28;20026;-55
2022/01/22 08:07:22;;;;;;;2.47;1.98;;;;;;;;;;5021442;28;20029;-55
2022/01/22 08:09:50;;;;;;;2.15;1.83;;;;;;;;;;5010400;28;20732;-54
2022/01/22 08:12:16;;;;;;;3.35;1.92;;;;;;;;;;5019796;28;20108;-54
2022/01/22 08:14:41;;;;;;;3.53;2.00;;;;;;;;;;5020741;28;20056;-51
2022/01/22 08:17:07;;;;;;;3.63;2.17;;;;;;;;;;5020701;28;20047;-54
2022/01/22 08:19:32;;;;;;;3.28;1.85;;;;;;;;;;5022989;28;20037;-55
2022/01/22 08:21:58;;;;;;;3.90;2.00;;;;;;;;;;5021880;28;20120;-52
2022/01/22 08:24:26;;;;;;;3.15;1.90;;;;;;;;;;5021839;28;20539;-55
2022/01/22 08:27:09;;;;;;;4.30;2.00;;;;;;;;;;5019667;28;20457;-58
2022/01/22 08:29:35;;;;;;;2.63;1.92;;;;;;;;;;5019632;28;20121;-52
2022/01/22 08:32:09;;;;;;;2.45;1.92;;;;;;;;;;5017693;28;20137;-54
2022/01/22 08:37:19;;;;;;;2.42;1.90;;;;;;;;;;5022364;28;20100;-54
2022/01/22 08:39:45;;;;;;;3.33;2.05;;;;;;;;;;5023882;28;20358;-55
2022/01/22 08:42:10;;;;;;;3.58;2.20;;;;;;;;;;5024488;28;20041;-57
2022/01/22 08:44:36;;;;;;;4.63;2.40;;;;;;;;;;5009495;28;20481;-52
2022/01/22 08:47:01;;;;;;;3.92;2.10;;;;;;;;;;5026008;28;20029;-56
2022/01/22 08:49:27;;;;;;;4.63;2.13;;;;;;;;;;5026082;28;20030;-52
2022/01/22 08:51:53;;;;;;;3.50;2.15;;;;;;;;;;5023965;28;20047;-53
2022/01/22 08:54:19;;;;;;;2.28;1.85;;;;;;;;;;5027053;28;20034;-54
2022/01/22 08:56:44;;;;;;;2.35;2.03;;;;;;;;;;5023652;28;20033;-54
2022/01/22 08:59:10;;;;;;;3.15;1.90;;;;;;;;;;5025020;28;20172;-56
2022/01/22 09:01:38;;;;;;;2.80;2.33;;;;;;;;;;5024910;28;20028;-55
2022/01/22 09:04:04;;;;;;;3.20;2.53;;;;;;;;;;5025116;28;20036;-53
2022/01/22 09:06:30;;;;;;;2.20;2.00;;;;;;;;;;5039559;28;20025;-55
2022/01/22 09:09:06;;;;;;;3.53;2.38;;;;;;;;;;5027239;28;20462;-53
2022/01/22 09:11:31;;;;;;;3.22;2.25;;;;;;;;;;5008807;28;20381;-57
2022/01/22 09:13:57;;;;;;;3.78;2.70;;;;;;;;;;5026460;28;20036;-52
2022/01/22 09:16:23;;;;;;;3.65;2.40;;;;;;;;;;5024806;28;20342;-52
2022/01/22 09:18:53;;;;;;;3.88;2.55;;;;;;;;;;5025133;28;20072;-52
2022/01/22 09:21:19;;;;;;;2.78;2.58;;;;;;;;;;5025007;28;20142;-55
2022/01/22 09:23:45;;;;;;;4.05;2.53;;;;;;;;;;5024298;28;20041;-56
2022/01/22 09:26:10;;;;;;;3.58;2.92;;;;;;;;;;5026400;28;20040;-53
2022/01/22 09:28:36;;;;;;;3.05;2.60;;;;;;;;;;5023685;28;20470;-51
2022/01/22 09:31:02;;;;;;;3.38;2.67;;;;;;;;;;5025511;28;20029;-55
2022/01/22 09:33:28;;;;;;;3.08;2.58;;;;;;;;;;5023427;28;21189;-57
2022/01/22 09:35:53;;;;;;;3.80;2.40;;;;;;;;;;5023657;28;20038;-56
2022/01/22 09:38:19;;;;;;;3.47;2.65;;;;;;;;;;5026593;28;20528;-52
2022/01/22 09:40:45;;;;;;;4.10;2.60;;;;;;;;;;5038187;28;20045;-54
2022/01/22 09:43:12;;;;;;;3.70;2.28;;;;;;;;;;5026754;28;20026;-56
2022/01/22 09:45:37;;;;;;;2.65;2.45;;;;;;;;;;5024490;28;20437;-52
2022/01/22 09:48:03;;;;;;;4.45;2.50;;;;;;;;;;5024916;28;20095;-55
2022/01/22 09:50:31;;;;;;;4.65;2.80;;;;;;;;;;5024581;28;20533;-52
2022/01/22 09:52:56;;;;;;;4.32;2.60;;;;;;;;;;5024428;28;20600;-54
2022/01/22 09:55:22;;;;;;;5.68;2.70;;;;;;;;;;5023913;28;20083;-55
2022/01/22 09:57:48;;;;;;;3.63;2.60;;;;;;;;;;5026776;28;20040;-56
2022/01/22 10:00:15;;;;;;;3.92;2.60;;;;;;;;;;5023724;28;20037;-52
2022/01/22 10:02:45;;;;;;;4.00;2.67;;;;;;;;;;5024974;28;20022;-53
2022/01/22 10:05:32;;;;;;;5.00;3.00;;;;;;;;;;5023489;28;20393;-55
2022/01/22 10:08:20;;;;;;;3.28;2.67;;;;;;;;;;5023913;28;20041;-52
2022/01/22 10:10:47;;;;;;;4.72;3.00;;;;;;;;;;5023486;28;20055;-52
2022/01/22 10:13:12;;;;;;;4.47;2.80;;;;;;;;;;5024964;28;20025;-55
2022/01/22 10:15:39;;;;;;;4.40;2.80;;;;;;;;;;5021493;28;20469;-54
2022/01/22 10:18:06;;;;;;;4.95;3.20;;;;;;;;;;5024561;28;20061;-52
2022/01/22 10:20:34;;;;;;;5.72;3.72;;;;;;;;;;5022051;28;20032;-54
2022/01/22 10:23:08;;;;;;;6.13;3.38;;;;;;;;;;5024344;28;20039;-54
2022/01/22 10:25:42;;;;;;;5.53;3.45;;;;;;;;;;5023190;28;20036;-54
2022/01/22 10:28:13;;;;;;;4.40;3.65;;;;;;;;;;5025318;28;20102;-53
2022/01/22 10:30:42;;;;;;;5.15;3.97;;;;;;;;;;5022139;28;20040;-54
2022/01/22 10:33:44;;;;;;;5.68;3.60;;;;;;;;;;5018774;28;20031;-55
2022/01/22 10:36:14;;;;;;;4.75;3.28;;;;;;;;;;4994539;28;20144;-52
2022/01/22 10:38:43;;;;;;;4.63;3.40;;;;;;;;;;5008284;28;20056;-54
2022/01/22 10:41:09;;;;;;;5.63;3.05;;;;;;;;;;5016759;28;20092;-56
2022/01/22 10:43:42;;;;;;;4.70;3.25;;;;;;;;;;5023647;28;20057;-57
2022/01/22 10:46:12;;;;;;;6.20;3.42;;;;;;;;;;5020083;28;20013;-53
2022/01/22 10:48:41;;;;;;;4.07;3.30;;;;;;;;;;5006322;28;20413;-58
2022/01/22 10:51:10;;;;;;;5.05;3.80;;;;;;;;;;5022505;28;20080;-55
2022/01/22 10:53:35;;;;;;;4.45;3.67;;;;;;;;;;5024757;28;20084;-54
2022/01/22 10:56:03;;;;;;;6.35;4.10;;;;;;;;;;5021023;28;20025;-56
2022/01/22 10:58:30;;;;;;;4.50;3.97;;;;;;;;;;5023210;28;20048;-55
2022/01/22 11:01:01;;;;;;;4.55;3.92;;;;;;;;;;5024863;28;20052;-56
2022/01/22 11:03:28;;;;;;;5.05;3.92;;;;;;;;;;5025250;28;20406;-52
2022/01/22 11:05:56;;;;;;;4.22;3.50;;;;;;;;;;5024828;28;20025;-56
2022/01/22 11:08:21;;;;;;;4.18;2.80;;;;;;;;;;5017950;28;20061;-53
2022/01/22 11:10:47;;;;;;;3.40;2.80;;;;;;;;;;5022528;28;20468;-57
2022/01/22 11:13:13;;;;;;;4.55;3.30;;;;;;;;;;5021647;28;20035;-56
2022/01/22 11:15:39;;;;;;;3.45;2.78;;;;;;;;;;5023777;28;20037;-55
2022/01/22 11:18:06;;;;;;;6.32;2.58;;;;;;;;;;5021764;28;20029;-54
2022/01/22 11:20:32;;;;;;;4.45;2.67;;;;;;;;;;5023860;28;20091;-58
2022/01/22 11:22:59;;;;;;;2.35;2.15;;;;;;;;;;5021784;28;20028;-55
2022/01/22 11:25:25;;;;;;;3.78;1.90;;;;;;;;;;5023667;28;20117;-55
2022/01/22 11:27:51;;;;;;;2.47;1.90;;;;;;;;;;5007033;28;20033;-56
2022/01/22 11:30:17;;;;;;;3.50;2.35;;;;;;;;;;5022840;28;20037;-56
2022/01/22 11:32:49;;;;;;;4.72;2.47;;;;;;;;;;5024469;28;20074;-57
2022/01/22 11:35:32;;;;;;;2.50;1.60;;;;;;;;;;5021535;28;20072;-57
2022/01/22 11:38:08;;;;;;;1.58;1.42;;;;;;;;;;5021980;28;20115;-53
2022/01/22 11:40:34;;;;;;;2.03;1.83;;;;;;;;;;5010111;28;20420;-55
2022/01/22 11:43:12;;;;;;;2.05;1.40;;;;;;;;;;5022548;28;20111;-55
2022/01/22 11:45:46;;;;;;;3.45;1.58;;;;;;;;;;5004454;28;20029;-57
2022/01/22 11:48:28;;;;;;;2.70;1.85;;;;;;;;;;5004997;28;20500;-56
2022/01/22 11:51:15;;;;;;;3.50;1.80;;;;;;;;;;5023172;28;20041;-54
2022/01/22 11:53:41;;;;;;;2.58;1.80;;;;;;;;;;5021257;28;20153;-56
2022/01/22 11:56:10;;;;;;;2.05;1.70;;;;;;;;;;5022031;28;20049;-56
2022/01/22 11:58:58;;;;;;;4.90;1.85;;;;;;;;;;5022342;28;20095;-54
2022/01/22 12:01:43;;;;;;;2.75;1.60;;;;;;;;;;5021105;28;20425;-53
2022/01/22 12:04:11;;;;;;;3.20;1.70;;;;;;;;;;5020058;28;20539;-58
2022/01/22 12:06:37;;;;;;;1.60;1.40;;;;;;;;;;5020308;28;20039;-53
2022/01/22 12:09:11;;;;;;;3.42;1.90;;;;;;;;;;5018015;28;20112;-53
2022/01/22 12:14:50;;;;;;;3.67;2.10;;;;;;;;;;5016442;28;20407;-55
2022/01/22 12:17:29;;;;;;;3.38;1.70;;;;;;;;;;5022366;28;20052;-55
2022/01/22 12:22:48;;;;;;;2.28;1.67;;;;;;;;;;5021552;28;20049;-51
2022/01/22 12:25:13;;;;;;;3.42;1.85;;;;;;;;;;5022942;28;20052;-53
2022/01/22 12:27:49;;;;;;;2.30;1.90;;;;;;;;;;5020895;28;20510;-54
2022/01/22 12:30:17;;;;;;;1.77;1.63;;;;;;;;;;5019192;28;20132;-57
2022/01/22 12:32:48;;;;;;;6.75;1.70;;;;;;;;;;5016711;28;20118;-54
2022/01/22 12:35:31;;;;;;;2.67;1.30;;;;;;;;;;5022575;28;20037;-56
2022/01/22 12:38:38;;;;;;;1.65;1.10;;;;;;;;;;5019513;28;20080;-57
2022/01/22 12:44:11;;;;;;;2.60;1.23;;;;;;;;;;5016942;28;20057;-55
2022/01/22 12:46:37;;;;;;;2.92;1.70;;;;;;;;;;5007567;28;20761;-56
2022/01/22 12:49:05;;;;;;;1.90;1.33;;;;;;;;;;5020113;28;20108;-55
2022/01/22 12:51:31;;;;;;;2.28;1.52;;;;;;;;;;5005520;28;20041;-57
2022/01/22 12:53:58;;;;;;;2.17;1.75;;;;;;;;;;5020440;28;20045;-56
2022/01/22 12:59:04;;;;;;;2.13;1.50;;;;;;;;;;5021197;28;20043;-51
2022/01/22 13:01:32;;;;;;;2.92;1.60;;;;;;;;;;5021091;28;20063;-53
2022/01/22 13:04:00;;;;;;;3.05;1.20;;;;;;;;;;5022862;28;20040;-52
2022/01/22 13:06:37;;;;;;;1.63;1.52;;;;;;;;;;5019045;28;20025;-54
2022/01/22 13:09:03;;;;;;;4.13;1.70;;;;;;;;;;5019556;28;20515;-56
2022/01/22 13:11:31;;;;;;;2.90;1.38;;;;;;;;;;5020164;28;20041;-53
2022/01/22 13:13:58;;;;;;;2.05;1.80;;;;;;;;;;5022687;28;20160;-57
2022/01/22 13:16:23;;;;;;;5.65;1.40;;;;;;;;;;5020558;28;20124;-55
2022/01/22 13:18:58;;;;;;;1.65;1.55;;;;;;;;;;5019240;28;20412;-53
2022/01/22 13:21:30;;;;;;;3.35;1.70;;;;;;;;;;5019529;28;20021;-54
2022/01/22 13:24:08;;;;;;;2.85;1.88;;;;;;;;;;5022579;28;20026;-54
2022/01/22 13:27:00;;;;;;;2.92;1.60;;;;;;;;;;5022389;28;20063;-54
2022/01/22 13:29:29;;;;;;;3.70;1.60;;;;;;;;;;5025431;28;20033;-54
2022/01/22 13:31:56;;;;;;;2.75;1.50;;;;;;;;;;5023612;28;20026;-53
2022/01/22 13:34:33;;;;;;;2.40;1.50;;;;;;;;;;5024357;28;20029;-60
2022/01/22 13:48:24;;;;;;;2.83;1.70;;;;;;;;;;5023325;28;20254;-54
2022/01/22 13:50:49;;;;;;;2.67;1.30;;;;;;;;;;5023789;28;20063;-52
2022/01/22 13:53:15;;;;;;;3.38;1.40;;;;;;;;;;5024624;28;20064;-57
2022/01/22 13:55:41;;;;;;;2.13;1.27;;;;;;;;;;5026256;28;20136;-53
2022/01/22 13:58:17;;;;;;;1.70;1.35;;;;;;;;;;5023749;28;20045;-55
2022/01/22 14:00:43;;;;;;;1.75;1.20;;;;;;;;;;5023957;28;20070;-55
2022/01/22 14:05:51;;;;;;;2.88;1.58;;;;;;;;;;5024686;28;20253;-57
2022/01/22 14:08:17;;;;;;;2.60;1.35;;;;;;;;;;5024351;28;20037;-54
2022/01/22 14:10:43;;;;;;;2.92;1.45;;;;;;;;;;5004706;28;20037;-56
2022/01/22 14:13:11;;;;;;;5.00;1.27;;;;;;;;;;5020989;28;20124;-55
2022/01/22 14:15:44;;;;;;;2.88;1.65;;;;;;;;;;5025337;28;20033;-56
2022/01/22 14:20:40;;;;;;;1.88;1.20;;;;;;;;;;5023959;28;20033;-55
2022/01/22 14:23:07;;;;;;;1.60;1.20;;;;;;;;;;5022971;28;20033;-52
2022/01/22 14:25:35;;;;;;;1.20;1.10;;;;;;;;;;5023981;28;20021;-52
2022/01/22 14:28:09;;;;;;;2.20;1.17;;;;;;;;;;5023093;28;20119;-59
2022/01/22 14:30:44;;;;;;;1.88;1.25;;;;;;;;;;5023895;28;20033;-56
2022/01/22 14:33:11;;;;;;;1.52;1.10;;;;;;;;;;5021922;28;20049;-56
2022/01/22 14:35:38;;;;;;;2.08;1.10;;;;;;;;;;5011440;28;20021;-57
2022/01/22 14:38:33;;;;;;;2.28;1.40;;;;;;;;;;5019837;28;20132;-58
2022/01/22 14:44:17;;;;;;;1.65;1.40;;;;;;;;;;5022364;28;20048;-54
2022/01/22 14:46:52;;;;;;;2.25;1.20;;;;;;;;;;5022025;28;21203;-57
2022/01/22 14:49:38;;;;;;;1.83;1.13;;;;;;;;;;5023419;28;20041;-55
2022/01/22 14:52:05;;;;;;;3.28;1.10;;;;;;;;;;5022172;28;20057;-52
2022/01/22 14:54:34;;;;;;;1.98;1.20;;;;;;;;;;5024001;28;20025;-53
2022/01/22 14:57:00;;;;;;;2.35;1.20;;;;;;;;;;5021184;28;20355;-55
2022/01/22 14:59:25;;;;;;;2.10;0.90;;;;;;;;;;5018194;28;20033;-54
2022/01/22 15:01:51;;;;;;;3.08;1.17;;;;;;;;;;5023362;28;20098;-51
2022/01/22 15:04:16;;;;;;;1.75;1.30;;;;;;;;;;5023563;28;20029;-53
2022/01/22 15:06:42;;;;;;;2.22;1.27;;;;;;;;;;5024544;28;20500;-56
2022/01/22 15:09:07;;;;;;;2.05;1.58;;;;;;;;;;5021605;28;20037;-53
2022/01/22 15:11:34;;;;;;;1.80;1.42;;;;;;;;;;5022821;28;20037;-56
2022/01/22 15:14:04;;;;;;;2.17;1.33;;;;;;;;;;5022480;28;20493;-54
2022/01/22 15:16:37;;;;;;;2.05;1.27;;;;;;;;;;5024298;28;20050;-55
2022/01/22 15:19:05;;;;;;;3.22;1.33;;;;;;;;;;5024244;28;20064;-56
2022/01/22 15:21:30;;;;;;;2.50;1.58;;;;;;;;;;5022875;28;20109;-52
2022/01/22 15:23:56;;;;;;;1.70;1.30;;;;;;;;;;5021729;28;20113;-56
2022/01/22 15:26:22;;;;;;;1.70;1.25;;;;;;;;;;5021890;28;20152;-53
2022/01/22 15:28:48;;;;;;;1.38;1.25;;;;;;;;;;5023895;28;20457;-51
2022/01/22 15:34:05;;;;;;;2.30;1.90;;;;;;;;;;5024029;28;20029;-53
2022/01/22 15:36:31;;;;;;;2.00;1.73;;;;;;;;;;5022375;28;20061;-52
2022/01/22 15:38:56;;;;;;;3.70;1.80;;;;;;;;;;5019561;28;20083;-53
2022/01/22 15:41:22;;;;;;;2.33;1.90;;;;;;;;;;5021859;28;20029;-55
2022/01/22 15:43:47;;;;;;;2.88;2.17;;;;;;;;;;5021969;28;20017;-55
2022/01/22 15:46:13;;;;;;;4.35;1.90;;;;;;;;;;5023079;28;20061;-56
2022/01/22 15:48:41;;;;;;;3.50;2.42;;;;;;;;;;5005507;28;20059;-56
2022/01/22 15:51:06;;;;;;;2.50;2.10;;;;;;;;;;5020985;28;20200;-55
2022/01/22 15:53:33;;;;;;;3.13;2.38;;;;;;;;;;5021446;28;20128;-55
2022/01/22 15:55:59;;;;;;;3.00;2.47;;;;;;;;;;5024126;28;20033;-57
2022/01/22 15:58:24;;;;;;;3.42;2.60;;;;;;;;;;5017619;28;20038;-56
2022/01/22 16:00:49;;;;;;;4.10;2.47;;;;;;;;;;5022693;28;20033;-56
2022/01/22 16:03:17;;;;;;;2.92;2.25;;;;;;;;;;5020328;28;20071;-56
2022/01/22 16:05:44;;;;;;;1.92;1.70;;;;;;;;;;5021916;28;20059;-54
2022/01/22 16:08:11;;;;;;;2.83;1.80;;;;;;;;;;5022518;28;20052;-54
2022/01/22 16:10:37;;;;;;;4.05;2.00;;;;;;;;;;5021230;28;20112;-53
2022/01/22 16:13:03;;;;;;;2.88;1.92;;;;;;;;;;5020400;28;20132;-56
2022/01/22 16:15:30;;;;;;;3.17;2.30;;;;;;;;;;5019455;28;20115;-54
2022/01/22 16:17:55;;;;;;;4.22;2.40;;;;;;;;;;5021052;28;20036;-56
2022/01/22 16:20:22;;;;;;;4.05;2.40;;;;;;;;;;5012335;28;20481;-56
2022/01/22 16:22:48;;;;;;;3.92;2.45;;;;;;;;;;5022382;28;20033;-55
2022/01/22 16:25:17;;;;;;;4.30;2.40;;;;;;;;;;5022288;28;20072;-58
2022/01/22 16:27:42;;;;;;;4.50;2.40;;;;;;;;;;5019871;28;20037;-59
2022/01/22 16:30:08;;;;;;;3.90;2.47;;;;;;;;;;5021416;28;20080;-57
2022/01/22 16:32:34;;;;;;;4.40;2.75;;;;;;;;;;5020755;28;20037;-56
2022/01/22 16:35:00;;;;;;;3.50;2.78;;;;;;;;;;5019885;28;20035;-56
2022/01/22 16:37:26;;;;;;;3.10;2.42;;;;;;;;;;5019345;28;20033;-55
2022/01/22 16:39:53;;;;;;;2.60;2.08;;;;;;;;;;5023643;28;20033;-55
2022/01/22 16:42:19;;;;;;;2.80;2.22;;;;;;;;;;5020685;28;20160;-56
2022/01/22 16:57:57;;;;;;;3.60;2.75;;;;;;;;;;5023971;28;20128;-55
2022/01/22 17:00:28;;;;;;;2.40;1.95;;;;;;;;;;5024443;28;20053;-54